sensor_id;sensor_type;location;lat;lon;timestamp;P1;durP1;ratioP1;P2;durP2;ratioP2
2480;SDS011;57396;48.742;9.128;2023-02-16T00:01:39;26.53;;;16.63;;
2480;SDS011;57396;48.742;9.128;2023-02-16T00:04:13;23.10;;;14.80;;
2480;SDS011;57396;48.742;9.128;2023-02-16T00:06:41;19.83;;;13.83;;
2480;SDS011;57396;48.742;9.128;2023-02-16T00:09:07;28.23;;;14.20;;
2480;SDS011;57396;48.742;9.128;2023-02-16T00:11:33;22.77;;;14.20;;
2480;SDS011;57396;48.742;9.128;2023-02-16T00:14:18;24.13;;;14.10;;
2480;SDS011;57396;48.742;9.128;2023-02-16T00:16:50;21.70;;;13.93;;
2480;SDS011;57396;48.742;9.128;2023-02-16T00:19:18;22.03;;;14.03;;
2480;SDS011;57396;48.742;9.128;2023-02-16T00:21:48;25.03;;;14.87;;
2480;SDS011;57396;48.742;9.128;2023-02-16T00:24:15;23.97;;;13.40;;
2480;SDS011;57396;48.742;9.128;2023-02-16T00:26:41;28.63;;;16.17;;
2480;SDS011;57396;48.742;9.128;2023-02-16T00:29:09;23.00;;;14.60;;
2480;SDS011;57396;48.742;9.128;2023-02-16T00:31:36;22.47;;;14.40;;
2480;SDS011;57396;48.742;9.128;2023-02-16T00:34:23;20.93;;;14.17;;
2480;SDS011;57396;48.742;9.128;2023-02-16T00:36:53;21.50;;;14.67;;
2480;SDS011;57396;48.742;9.128;2023-02-16T00:39:19;32.47;;;15.63;;
2480;SDS011;57396;48.742;9.128;2023-02-16T00:41:45;24.07;;;15.17;;
2480;SDS011;57396;48.742;9.128;2023-02-16T00:44:28;22.30;;;13.80;;
2480;SDS011;57396;48.742;9.128;2023-02-16T00:46:58;21.27;;;13.40;;
2480;SDS011;57396;48.742;9.128;2023-02-16T00:49:25;23.20;;;13.70;;
2480;SDS011;57396;48.742;9.128;2023-02-16T00:51:51;22.50;;;13.83;;
2480;SDS011;57396;48.742;9.128;2023-02-16T00:54:16;26.00;;;13.87;;
2480;SDS011;57396;48.742;9.128;2023-02-16T00:56:42;23.93;;;13.37;;
2480;SDS011;57396;48.742;9.128;2023-02-16T00:59:15;23.53;;;13.30;;
2480;SDS011;57396;48.742;9.128;2023-02-16T01:01:43;19.83;;;13.20;;
2480;SDS011;57396;48.742;9.128;2023-02-16T01:04:09;20.20;;;13.13;;
2480;SDS011;57396;48.742;9.128;2023-02-16T01:06:37;25.50;;;12.50;;
2480;SDS011;57396;48.742;9.128;2023-02-16T01:09:21;22.37;;;14.50;;
2480;SDS011;57396;48.742;9.128;2023-02-16T01:12:08;25.40;;;14.90;;
2480;SDS011;57396;48.742;9.128;2023-02-16T01:14:38;25.67;;;14.10;;
2480;SDS011;57396;48.742;9.128;2023-02-16T01:17:03;23.93;;;13.57;;
2480;SDS011;57396;48.742;9.128;2023-02-16T01:19:29;21.43;;;14.40;;
2480;SDS011;57396;48.742;9.128;2023-02-16T01:21:54;18.87;;;13.77;;
2480;SDS011;57396;48.742;9.128;2023-02-16T01:24:20;23.87;;;14.03;;
2480;SDS011;57396;48.742;9.128;2023-02-16T01:26:46;23.87;;;15.10;;
2480;SDS011;57396;48.742;9.128;2023-02-16T01:29:14;24.17;;;13.47;;
2480;SDS011;57396;48.742;9.128;2023-02-16T01:31:45;23.70;;;14.70;;
2480;SDS011;57396;48.742;9.128;2023-02-16T01:34:11;21.43;;;14.20;;
2480;SDS011;57396;48.742;9.128;2023-02-16T01:36:38;26.13;;;14.30;;
2480;SDS011;57396;48.742;9.128;2023-02-16T01:39:04;36.67;;;14.13;;
2480;SDS011;57396;48.742;9.128;2023-02-16T01:44:15;23.50;;;13.90;;
2480;SDS011;57396;48.742;9.128;2023-02-16T01:49:26;20.30;;;14.40;;
2480;SDS011;57396;48.742;9.128;2023-02-16T01:51:54;20.33;;;12.77;;
2480;SDS011;57396;48.742;9.128;2023-02-16T02:02:11;22.27;;;13.90;;
2480;SDS011;57396;48.742;9.128;2023-02-16T02:07:57;19.83;;;13.03;;
2480;SDS011;57396;48.742;9.128;2023-02-16T02:15:57;20.00;;;13.10;;
2480;SDS011;57396;48.742;9.128;2023-02-16T02:18:23;21.30;;;12.70;;
2480;SDS011;57396;48.742;9.128;2023-02-16T02:20:51;18.50;;;12.97;;
2480;SDS011;57396;48.742;9.128;2023-02-16T02:29:36;21.73;;;13.53;;
2480;SDS011;57396;48.742;9.128;2023-02-16T02:32:17;18.93;;;12.90;;
2480;SDS011;57396;48.742;9.128;2023-02-16T02:34:51;19.20;;;11.97;;
2480;SDS011;57396;48.742;9.128;2023-02-16T02:45:43;20.40;;;11.97;;
2480;SDS011;57396;48.742;9.128;2023-02-16T02:48:11;19.13;;;11.23;;
2480;SDS011;57396;48.742;9.128;2023-02-16T02:53:42;18.23;;;11.70;;
2480;SDS011;57396;48.742;9.128;2023-02-16T02:56:10;23.00;;;12.87;;
2480;SDS011;57396;48.742;9.128;2023-02-16T02:59:03;18.27;;;11.03;;
2480;SDS011;57396;48.742;9.128;2023-02-16T03:01:50;17.27;;;11.83;;
2480;SDS011;57396;48.742;9.128;2023-02-16T03:04:18;19.27;;;11.87;;
2480;SDS011;57396;48.742;9.128;2023-02-16T03:06:52;21.00;;;11.47;;
2480;SDS011;57396;48.742;9.128;2023-02-16T03:09:18;18.43;;;11.30;;
2480;SDS011;57396;48.742;9.128;2023-02-16T03:11:44;16.30;;;11.10;;
2480;SDS011;57396;48.742;9.128;2023-02-16T03:14:37;18.03;;;11.07;;
2480;SDS011;57396;48.742;9.128;2023-02-16T03:17:07;17.20;;;11.03;;
2480;SDS011;57396;48.742;9.128;2023-02-16T03:19:54;17.03;;;12.20;;
2480;SDS011;57396;48.742;9.128;2023-02-16T03:22:40;17.67;;;11.50;;
2480;SDS011;57396;48.742;9.128;2023-02-16T03:25:25;17.47;;;11.57;;
2480;SDS011;57396;48.742;9.128;2023-02-16T03:28:13;19.20;;;12.20;;
2480;SDS011;57396;48.742;9.128;2023-02-16T03:30:57;17.20;;;10.60;;
2480;SDS011;57396;48.742;9.128;2023-02-16T03:33:23;17.97;;;10.13;;
2480;SDS011;57396;48.742;9.128;2023-02-16T03:35:49;15.63;;;10.50;;
2480;SDS011;57396;48.742;9.128;2023-02-16T03:38:15;19.50;;;11.77;;
2480;SDS011;57396;48.742;9.128;2023-02-16T03:40:41;19.67;;;11.13;;
2480;SDS011;57396;48.742;9.128;2023-02-16T03:43:08;14.20;;;9.67;;
2480;SDS011;57396;48.742;9.128;2023-02-16T03:45:34;18.70;;;11.07;;
2480;SDS011;57396;48.742;9.128;2023-02-16T03:48:01;25.53;;;11.60;;
2480;SDS011;57396;48.742;9.128;2023-02-16T03:50:27;18.10;;;11.33;;
2480;SDS011;57396;48.742;9.128;2023-02-16T03:52:53;17.63;;;11.30;;
2480;SDS011;57396;48.742;9.128;2023-02-16T03:55:35;16.90;;;11.20;;
2480;SDS011;57396;48.742;9.128;2023-02-16T03:58:02;18.40;;;11.93;;
2480;SDS011;57396;48.742;9.128;2023-02-16T04:00:28;19.43;;;11.10;;
2480;SDS011;57396;48.742;9.128;2023-02-16T04:02:54;19.67;;;11.83;;
2480;SDS011;57396;48.742;9.128;2023-02-16T04:05:19;19.33;;;10.70;;
2480;SDS011;57396;48.742;9.128;2023-02-16T04:07:45;20.07;;;12.23;;
2480;SDS011;57396;48.742;9.128;2023-02-16T04:10:11;17.13;;;11.50;;
2480;SDS011;57396;48.742;9.128;2023-02-16T04:12:36;23.60;;;13.30;;
2480;SDS011;57396;48.742;9.128;2023-02-16T04:15:03;19.90;;;11.70;;
2480;SDS011;57396;48.742;9.128;2023-02-16T04:17:47;16.60;;;11.40;;
2480;SDS011;57396;48.742;9.128;2023-02-16T04:20:14;17.70;;;11.10;;
2480;SDS011;57396;48.742;9.128;2023-02-16T04:22:42;18.13;;;11.27;;
2480;SDS011;57396;48.742;9.128;2023-02-16T04:25:08;17.27;;;11.07;;
2480;SDS011;57396;48.742;9.128;2023-02-16T04:27:34;18.30;;;11.77;;
2480;SDS011;57396;48.742;9.128;2023-02-16T04:29:59;21.00;;;10.60;;
2480;SDS011;57396;48.742;9.128;2023-02-16T04:32:25;19.07;;;11.23;;
2480;SDS011;57396;48.742;9.128;2023-02-16T04:34:50;13.67;;;10.23;;
2480;SDS011;57396;48.742;9.128;2023-02-16T04:37:16;18.33;;;10.80;;
2480;SDS011;57396;48.742;9.128;2023-02-16T04:39:41;15.53;;;10.30;;
2480;SDS011;57396;48.742;9.128;2023-02-16T04:42:07;17.40;;;10.90;;
2480;SDS011;57396;48.742;9.128;2023-02-16T04:44:32;14.63;;;10.30;;
2480;SDS011;57396;48.742;9.128;2023-02-16T04:46:57;20.40;;;12.57;;
2480;SDS011;57396;48.742;9.128;2023-02-16T04:49:23;16.03;;;10.43;;
2480;SDS011;57396;48.742;9.128;2023-02-16T04:51:48;19.93;;;10.73;;
2480;SDS011;57396;48.742;9.128;2023-02-16T04:54:14;16.40;;;11.63;;
2480;SDS011;57396;48.742;9.128;2023-02-16T04:56:41;21.93;;;11.33;;
2480;SDS011;57396;48.742;9.128;2023-02-16T04:59:08;16.70;;;11.00;;
2480;SDS011;57396;48.742;9.128;2023-02-16T05:01:33;16.53;;;10.00;;
2480;SDS011;57396;48.742;9.128;2023-02-16T05:03:58;17.40;;;10.80;;
2480;SDS011;57396;48.742;9.128;2023-02-16T05:06:24;17.30;;;9.30;;
2480;SDS011;57396;48.742;9.128;2023-02-16T05:08:49;16.67;;;11.43;;
2480;SDS011;57396;48.742;9.128;2023-02-16T05:11:15;15.10;;;9.93;;
2480;SDS011;57396;48.742;9.128;2023-02-16T05:13:59;15.23;;;11.20;;
2480;SDS011;57396;48.742;9.128;2023-02-16T05:16:43;18.43;;;10.77;;
2480;SDS011;57396;48.742;9.128;2023-02-16T05:19:09;17.47;;;10.63;;
2480;SDS011;57396;48.742;9.128;2023-02-16T05:21:34;19.10;;;10.27;;
2480;SDS011;57396;48.742;9.128;2023-02-16T05:24:07;17.80;;;11.10;;
2480;SDS011;57396;48.742;9.128;2023-02-16T05:26:34;16.67;;;10.40;;
2480;SDS011;57396;48.742;9.128;2023-02-16T05:29:00;16.00;;;10.70;;
2480;SDS011;57396;48.742;9.128;2023-02-16T05:31:26;16.50;;;10.47;;
2480;SDS011;57396;48.742;9.128;2023-02-16T05:33:52;20.53;;;11.17;;
2480;SDS011;57396;48.742;9.128;2023-02-16T05:36:18;19.33;;;11.50;;
2480;SDS011;57396;48.742;9.128;2023-02-16T05:38:43;18.13;;;10.43;;
2480;SDS011;57396;48.742;9.128;2023-02-16T05:41:09;14.70;;;10.53;;
2480;SDS011;57396;48.742;9.128;2023-02-16T05:43:35;15.30;;;10.40;;
2480;SDS011;57396;48.742;9.128;2023-02-16T05:46:05;18.60;;;11.67;;
2480;SDS011;57396;48.742;9.128;2023-02-16T05:48:32;17.60;;;10.40;;
2480;SDS011;57396;48.742;9.128;2023-02-16T05:50:57;17.73;;;11.07;;
2480;SDS011;57396;48.742;9.128;2023-02-16T05:53:23;21.87;;;11.00;;
2480;SDS011;57396;48.742;9.128;2023-02-16T05:55:48;17.13;;;11.20;;
2480;SDS011;57396;48.742;9.128;2023-02-16T05:58:14;15.43;;;9.50;;
2480;SDS011;57396;48.742;9.128;2023-02-16T06:00:39;18.57;;;11.07;;
2480;SDS011;57396;48.742;9.128;2023-02-16T06:03:04;18.33;;;11.40;;
2480;SDS011;57396;48.742;9.128;2023-02-16T06:05:30;19.43;;;11.47;;
2480;SDS011;57396;48.742;9.128;2023-02-16T06:07:55;15.90;;;10.60;;
2480;SDS011;57396;48.742;9.128;2023-02-16T06:10:21;21.30;;;11.13;;
2480;SDS011;57396;48.742;9.128;2023-02-16T06:12:46;22.43;;;12.80;;
2480;SDS011;57396;48.742;9.128;2023-02-16T06:15:11;18.23;;;11.60;;
2480;SDS011;57396;48.742;9.128;2023-02-16T06:17:37;21.70;;;13.20;;
2480;SDS011;57396;48.742;9.128;2023-02-16T06:20:03;20.77;;;13.03;;
2480;SDS011;57396;48.742;9.128;2023-02-16T06:22:29;21.73;;;13.57;;
2480;SDS011;57396;48.742;9.128;2023-02-16T06:24:54;22.50;;;13.20;;
2480;SDS011;57396;48.742;9.128;2023-02-16T06:27:20;22.53;;;12.73;;
2480;SDS011;57396;48.742;9.128;2023-02-16T06:29:45;20.63;;;13.27;;
2480;SDS011;57396;48.742;9.128;2023-02-16T06:32:11;19.87;;;12.90;;
2480;SDS011;57396;48.742;9.128;2023-02-16T06:34:36;19.37;;;13.00;;
2480;SDS011;57396;48.742;9.128;2023-02-16T06:37:01;20.47;;;13.60;;
2480;SDS011;57396;48.742;9.128;2023-02-16T06:39:27;29.23;;;13.10;;
2480;SDS011;57396;48.742;9.128;2023-02-16T06:41:52;18.23;;;12.37;;
2480;SDS011;57396;48.742;9.128;2023-02-16T06:44:18;17.57;;;12.37;;
2480;SDS011;57396;48.742;9.128;2023-02-16T06:46:44;22.07;;;12.83;;
2480;SDS011;57396;48.742;9.128;2023-02-16T06:49:11;23.27;;;13.20;;
2480;SDS011;57396;48.742;9.128;2023-02-16T06:51:37;22.70;;;12.70;;
2480;SDS011;57396;48.742;9.128;2023-02-16T06:54:03;18.53;;;12.20;;
2480;SDS011;57396;48.742;9.128;2023-02-16T06:56:28;19.90;;;11.97;;
2480;SDS011;57396;48.742;9.128;2023-02-16T06:58:54;19.23;;;12.20;;
2480;SDS011;57396;48.742;9.128;2023-02-16T07:01:19;19.43;;;12.30;;
2480;SDS011;57396;48.742;9.128;2023-02-16T07:03:49;22.77;;;12.03;;
2480;SDS011;57396;48.742;9.128;2023-02-16T07:06:15;20.20;;;11.93;;
2480;SDS011;57396;48.742;9.128;2023-02-16T07:08:41;16.53;;;12.10;;
2480;SDS011;57396;48.742;9.128;2023-02-16T07:11:06;20.20;;;13.20;;
2480;SDS011;57396;48.742;9.128;2023-02-16T07:13:32;29.30;;;16.20;;
2480;SDS011;57396;48.742;9.128;2023-02-16T07:16:01;26.30;;;13.70;;
2480;SDS011;57396;48.742;9.128;2023-02-16T07:18:27;20.50;;;12.43;;
2480;SDS011;57396;48.742;9.128;2023-02-16T07:20:52;25.30;;;13.20;;
2480;SDS011;57396;48.742;9.128;2023-02-16T07:23:18;26.10;;;14.03;;
2480;SDS011;57396;48.742;9.128;2023-02-16T07:25:43;25.23;;;13.40;;
2480;SDS011;57396;48.742;9.128;2023-02-16T07:28:08;22.80;;;14.93;;
2480;SDS011;57396;48.742;9.128;2023-02-16T07:30:34;22.10;;;14.17;;
2480;SDS011;57396;48.742;9.128;2023-02-16T07:33:00;22.23;;;14.67;;
2480;SDS011;57396;48.742;9.128;2023-02-16T07:35:25;23.90;;;14.33;;
2480;SDS011;57396;48.742;9.128;2023-02-16T07:37:51;30.10;;;14.73;;
2480;SDS011;57396;48.742;9.128;2023-02-16T07:40:16;27.40;;;15.67;;
2480;SDS011;57396;48.742;9.128;2023-02-16T07:42:42;23.30;;;13.50;;
2480;SDS011;57396;48.742;9.128;2023-02-16T07:45:08;24.43;;;14.00;;
2480;SDS011;57396;48.742;9.128;2023-02-16T07:47:33;25.07;;;14.63;;
2480;SDS011;57396;48.742;9.128;2023-02-16T07:49:59;26.43;;;16.93;;
2480;SDS011;57396;48.742;9.128;2023-02-16T07:52:24;27.03;;;17.17;;
2480;SDS011;57396;48.742;9.128;2023-02-16T07:54:55;27.23;;;14.83;;
2480;SDS011;57396;48.742;9.128;2023-02-16T07:57:24;27.00;;;15.00;;
2480;SDS011;57396;48.742;9.128;2023-02-16T07:59:50;24.80;;;15.17;;
2480;SDS011;57396;48.742;9.128;2023-02-16T08:02:19;23.80;;;15.33;;
2480;SDS011;57396;48.742;9.128;2023-02-16T08:04:46;28.93;;;15.33;;
2480;SDS011;57396;48.742;9.128;2023-02-16T08:07:16;22.40;;;15.20;;
2480;SDS011;57396;48.742;9.128;2023-02-16T08:09:41;22.63;;;14.30;;
2480;SDS011;57396;48.742;9.128;2023-02-16T08:12:10;27.30;;;14.80;;
2480;SDS011;57396;48.742;9.128;2023-02-16T08:14:36;26.20;;;16.07;;
2480;SDS011;57396;48.742;9.128;2023-02-16T08:17:02;22.23;;;14.40;;
2480;SDS011;57396;48.742;9.128;2023-02-16T08:19:28;22.23;;;14.60;;
2480;SDS011;57396;48.742;9.128;2023-02-16T08:21:54;25.20;;;16.37;;
2480;SDS011;57396;48.742;9.128;2023-02-16T08:24:19;26.17;;;15.40;;
2480;SDS011;57396;48.742;9.128;2023-02-16T08:26:47;25.90;;;15.27;;
2480;SDS011;57396;48.742;9.128;2023-02-16T08:29:14;24.20;;;16.30;;
2480;SDS011;57396;48.742;9.128;2023-02-16T08:31:42;26.40;;;15.27;;
2480;SDS011;57396;48.742;9.128;2023-02-16T08:34:10;23.17;;;14.20;;
2480;SDS011;57396;48.742;9.128;2023-02-16T08:36:36;22.63;;;14.50;;
2480;SDS011;57396;48.742;9.128;2023-02-16T08:39:06;24.50;;;15.10;;
2480;SDS011;57396;48.742;9.128;2023-02-16T08:41:35;18.97;;;13.20;;
2480;SDS011;57396;48.742;9.128;2023-02-16T08:44:02;22.37;;;13.90;;
2480;SDS011;57396;48.742;9.128;2023-02-16T08:46:28;19.37;;;13.50;;
2480;SDS011;57396;48.742;9.128;2023-02-16T08:48:54;26.30;;;13.63;;
2480;SDS011;57396;48.742;9.128;2023-02-16T08:51:24;22.50;;;14.40;;
2480;SDS011;57396;48.742;9.128;2023-02-16T08:53:52;23.90;;;15.07;;
2480;SDS011;57396;48.742;9.128;2023-02-16T08:56:17;26.00;;;14.23;;
2480;SDS011;57396;48.742;9.128;2023-02-16T08:58:44;24.20;;;14.67;;
2480;SDS011;57396;48.742;9.128;2023-02-16T09:01:10;25.33;;;13.90;;
2480;SDS011;57396;48.742;9.128;2023-02-16T09:03:37;21.90;;;15.07;;
2480;SDS011;57396;48.742;9.128;2023-02-16T09:06:05;27.90;;;15.10;;
2480;SDS011;57396;48.742;9.128;2023-02-16T09:08:31;25.40;;;14.87;;
2480;SDS011;57396;48.742;9.128;2023-02-16T09:11:03;22.07;;;14.57;;
2480;SDS011;57396;48.742;9.128;2023-02-16T09:13:31;26.50;;;17.37;;
2480;SDS011;57396;48.742;9.128;2023-02-16T09:16:01;21.00;;;12.80;;
2480;SDS011;57396;48.742;9.128;2023-02-16T09:18:29;14.60;;;10.80;;
2480;SDS011;57396;48.742;9.128;2023-02-16T09:20:54;19.77;;;9.63;;
2480;SDS011;57396;48.742;9.128;2023-02-16T09:23:21;15.17;;;9.33;;
2480;SDS011;57396;48.742;9.128;2023-02-16T09:25:46;15.57;;;9.87;;
2480;SDS011;57396;48.742;9.128;2023-02-16T09:28:12;19.73;;;8.67;;
2480;SDS011;57396;48.742;9.128;2023-02-16T09:30:37;14.67;;;8.60;;
2480;SDS011;57396;48.742;9.128;2023-02-16T09:33:03;15.27;;;9.40;;
2480;SDS011;57396;48.742;9.128;2023-02-16T09:35:29;13.40;;;9.10;;
2480;SDS011;57396;48.742;9.128;2023-02-16T09:37:54;15.67;;;8.67;;
2480;SDS011;57396;48.742;9.128;2023-02-16T09:40:21;18.13;;;9.10;;
2480;SDS011;57396;48.742;9.128;2023-02-16T09:45:37;17.30;;;8.53;;
2480;SDS011;57396;48.742;9.128;2023-02-16T09:48:08;14.13;;;8.90;;
2480;SDS011;57396;48.742;9.128;2023-02-16T09:50:36;22.83;;;8.67;;
2480;SDS011;57396;48.742;9.128;2023-02-16T09:53:07;15.63;;;9.10;;
2480;SDS011;57396;48.742;9.128;2023-02-16T09:55:42;14.83;;;8.30;;
2480;SDS011;57396;48.742;9.128;2023-02-16T09:58:18;12.87;;;8.90;;
2480;SDS011;57396;48.742;9.128;2023-02-16T10:00:53;12.67;;;7.17;;
2480;SDS011;57396;48.742;9.128;2023-02-16T10:06:05;11.10;;;6.63;;
2480;SDS011;57396;48.742;9.128;2023-02-16T10:08:43;12.40;;;7.07;;
2480;SDS011;57396;48.742;9.128;2023-02-16T10:11:14;10.10;;;7.47;;
2480;SDS011;57396;48.742;9.128;2023-02-16T10:14:06;10.90;;;7.27;;
2480;SDS011;57396;48.742;9.128;2023-02-16T10:16:36;12.67;;;7.70;;
2480;SDS011;57396;48.742;9.128;2023-02-16T10:19:48;12.40;;;7.60;;
2480;SDS011;57396;48.742;9.128;2023-02-16T10:21:57;10.70;;;7.10;;
2480;SDS011;57396;48.742;9.128;2023-02-16T10:24:24;10.40;;;6.67;;
2480;SDS011;57396;48.742;9.128;2023-02-16T10:27:12;13.00;;;6.87;;
2480;SDS011;57396;48.742;9.128;2023-02-16T10:29:39;12.60;;;7.00;;
2480;SDS011;57396;48.742;9.128;2023-02-16T10:42:53;7.33;;;6.47;;
2480;SDS011;57396;48.742;9.128;2023-02-16T10:45:56;12.00;;;7.60;;
2480;SDS011;57396;48.742;9.128;2023-02-16T10:48:18;9.03;;;6.47;;
2480;SDS011;57396;48.742;9.128;2023-02-16T10:50:52;10.10;;;6.50;;
2480;SDS011;57396;48.742;9.128;2023-02-16T10:56:36;11.30;;;5.20;;
2480;SDS011;57396;48.742;9.128;2023-02-16T11:04:49;9.30;;;5.70;;
2480;SDS011;57396;48.742;9.128;2023-02-16T11:07:20;8.87;;;5.60;;
2480;SDS011;57396;48.742;9.128;2023-02-16T11:09:48;8.43;;;5.40;;
2480;SDS011;57396;48.742;9.128;2023-02-16T11:12:22;8.67;;;5.43;;
2480;SDS011;57396;48.742;9.128;2023-02-16T11:25:41;9.43;;;5.27;;
2480;SDS011;57396;48.742;9.128;2023-02-16T11:28:08;8.30;;;5.63;;
2480;SDS011;57396;48.742;9.128;2023-02-16T11:30:36;8.63;;;5.57;;
2480;SDS011;57396;48.742;9.128;2023-02-16T11:33:04;6.30;;;5.10;;
2480;SDS011;57396;48.742;9.128;2023-02-16T11:35:42;7.57;;;5.47;;
2480;SDS011;57396;48.742;9.128;2023-02-16T11:38:22;6.60;;;5.00;;
2480;SDS011;57396;48.742;9.128;2023-02-16T11:40:50;12.87;;;5.73;;
2480;SDS011;57396;48.742;9.128;2023-02-16T11:43:16;8.00;;;5.00;;
2480;SDS011;57396;48.742;9.128;2023-02-16T11:45:42;12.40;;;5.07;;
2480;SDS011;57396;48.742;9.128;2023-02-16T11:48:10;8.30;;;5.37;;
2480;SDS011;57396;48.742;9.128;2023-02-16T11:50:38;7.10;;;5.00;;
2480;SDS011;57396;48.742;9.128;2023-02-16T11:55:35;7.50;;;4.63;;
2480;SDS011;57396;48.742;9.128;2023-02-16T12:00:40;6.07;;;4.53;;
2480;SDS011;57396;48.742;9.128;2023-02-16T12:03:17;6.77;;;4.70;;
2480;SDS011;57396;48.742;9.128;2023-02-16T12:14:30;6.80;;;4.63;;
2480;SDS011;57396;48.742;9.128;2023-02-16T12:19:53;8.07;;;4.43;;
2480;SDS011;57396;48.742;9.128;2023-02-16T12:25:03;8.40;;;5.13;;
2480;SDS011;57396;48.742;9.128;2023-02-16T12:30:31;13.17;;;4.97;;
2480;SDS011;57396;48.742;9.128;2023-02-16T12:33:44;4.60;;;4.20;;
2480;SDS011;57396;48.742;9.128;2023-02-16T12:36:10;7.80;;;4.07;;
2480;SDS011;57396;48.742;9.128;2023-02-16T12:43:55;5.20;;;3.80;;
2480;SDS011;57396;48.742;9.128;2023-02-16T12:46:24;4.20;;;3.80;;
2480;SDS011;57396;48.742;9.128;2023-02-16T12:48:58;8.70;;;4.57;;
2480;SDS011;57396;48.742;9.128;2023-02-16T12:51:29;5.90;;;3.40;;
2480;SDS011;57396;48.742;9.128;2023-02-16T12:54:01;5.90;;;4.03;;
2480;SDS011;57396;48.742;9.128;2023-02-16T12:57:20;3.50;;;3.17;;
2480;SDS011;57396;48.742;9.128;2023-02-16T13:02:13;5.20;;;3.70;;
2480;SDS011;57396;48.742;9.128;2023-02-16T13:04:46;4.27;;;3.63;;
2480;SDS011;57396;48.742;9.128;2023-02-16T13:07:20;8.17;;;3.90;;
2480;SDS011;57396;48.742;9.128;2023-02-16T13:12:52;5.63;;;4.20;;
2480;SDS011;57396;48.742;9.128;2023-02-16T13:15:22;6.80;;;4.00;;
2480;SDS011;57396;48.742;9.128;2023-02-16T13:17:52;7.33;;;3.90;;
2480;SDS011;57396;48.742;9.128;2023-02-16T13:20:20;6.43;;;3.70;;
2480;SDS011;57396;48.742;9.128;2023-02-16T13:25:30;7.57;;;4.50;;
2480;SDS011;57396;48.742;9.128;2023-02-16T13:36:32;6.60;;;4.03;;
2480;SDS011;57396;48.742;9.128;2023-02-16T13:44:20;7.60;;;3.63;;
2480;SDS011;57396;48.742;9.128;2023-02-16T13:46:48;7.07;;;3.73;;
2480;SDS011;57396;48.742;9.128;2023-02-16T13:52:04;13.83;;;7.90;;
2480;SDS011;57396;48.742;9.128;2023-02-16T13:54:36;16.43;;;8.23;;
2480;SDS011;57396;48.742;9.128;2023-02-16T13:57:04;10.40;;;7.57;;
2480;SDS011;57396;48.742;9.128;2023-02-16T14:02:01;12.40;;;7.97;;
2480;SDS011;57396;48.742;9.128;2023-02-16T14:20:03;14.13;;;8.90;;
2480;SDS011;57396;48.742;9.128;2023-02-16T14:27:47;8.33;;;4.03;;
2480;SDS011;57396;48.742;9.128;2023-02-16T14:30:16;3.43;;;3.00;;
2480;SDS011;57396;48.742;9.128;2023-02-16T14:33:04;4.60;;;2.90;;
2480;SDS011;57396;48.742;9.128;2023-02-16T14:35:41;8.37;;;3.20;;
2480;SDS011;57396;48.742;9.128;2023-02-16T14:38:23;4.93;;;2.80;;
2480;SDS011;57396;48.742;9.128;2023-02-16T14:40:52;4.00;;;2.80;;
2480;SDS011;57396;48.742;9.128;2023-02-16T14:43:32;5.10;;;2.80;;
2480;SDS011;57396;48.742;9.128;2023-02-16T14:57:19;4.70;;;3.00;;
2480;SDS011;57396;48.742;9.128;2023-02-16T14:59:44;6.30;;;3.30;;
2480;SDS011;57396;48.742;9.128;2023-02-16T15:02:24;4.67;;;2.50;;
2480;SDS011;57396;48.742;9.128;2023-02-16T15:04:51;4.87;;;3.07;;
2480;SDS011;57396;48.742;9.128;2023-02-16T15:07:17;5.17;;;2.83;;
2480;SDS011;57396;48.742;9.128;2023-02-16T15:09:43;5.97;;;2.53;;
2480;SDS011;57396;48.742;9.128;2023-02-16T15:12:12;7.13;;;3.40;;
2480;SDS011;57396;48.742;9.128;2023-02-16T15:14:51;6.10;;;3.10;;
2480;SDS011;57396;48.742;9.128;2023-02-16T15:20:07;3.60;;;2.70;;
2480;SDS011;57396;48.742;9.128;2023-02-16T15:23:03;4.73;;;3.07;;
2480;SDS011;57396;48.742;9.128;2023-02-16T15:25:41;3.00;;;2.70;;
2480;SDS011;57396;48.742;9.128;2023-02-16T15:30:36;7.07;;;2.80;;
2480;SDS011;57396;48.742;9.128;2023-02-16T15:33:04;5.27;;;2.83;;
2480;SDS011;57396;48.742;9.128;2023-02-16T15:35:35;7.27;;;3.27;;
2480;SDS011;57396;48.742;9.128;2023-02-16T15:38:07;3.57;;;2.63;;
2480;SDS011;57396;48.742;9.128;2023-02-16T15:40:37;4.10;;;3.20;;
2480;SDS011;57396;48.742;9.128;2023-02-16T15:43:07;7.00;;;3.20;;
2480;SDS011;57396;48.742;9.128;2023-02-16T15:45:37;4.13;;;3.00;;
2480;SDS011;57396;48.742;9.128;2023-02-16T15:48:19;6.00;;;3.20;;
2480;SDS011;57396;48.742;9.128;2023-02-16T15:50:47;5.40;;;3.20;;
2480;SDS011;57396;48.742;9.128;2023-02-16T15:53:14;4.20;;;3.27;;
2480;SDS011;57396;48.742;9.128;2023-02-16T15:55:47;5.97;;;3.17;;
2480;SDS011;57396;48.742;9.128;2023-02-16T15:58:14;3.20;;;2.77;;
2480;SDS011;57396;48.742;9.128;2023-02-16T16:00:40;4.67;;;2.90;;
2480;SDS011;57396;48.742;9.128;2023-02-16T16:03:08;8.40;;;3.30;;
2480;SDS011;57396;48.742;9.128;2023-02-16T16:05:38;4.67;;;3.50;;
2480;SDS011;57396;48.742;9.128;2023-02-16T16:08:06;6.20;;;3.30;;
2480;SDS011;57396;48.742;9.128;2023-02-16T16:10:37;5.60;;;3.20;;
2480;SDS011;57396;48.742;9.128;2023-02-16T16:13:14;5.17;;;3.90;;
2480;SDS011;57396;48.742;9.128;2023-02-16T16:15:43;6.10;;;4.10;;
2480;SDS011;57396;48.742;9.128;2023-02-16T16:26:25;7.10;;;4.30;;
2480;SDS011;57396;48.742;9.128;2023-02-16T16:28:52;8.43;;;4.50;;
2480;SDS011;57396;48.742;9.128;2023-02-16T16:33:57;8.47;;;4.40;;
2480;SDS011;57396;48.742;9.128;2023-02-16T16:36:26;7.97;;;4.10;;
2480;SDS011;57396;48.742;9.128;2023-02-16T16:38:53;10.37;;;5.30;;
2480;SDS011;57396;48.742;9.128;2023-02-16T16:41:32;10.03;;;6.40;;
2480;SDS011;57396;48.742;9.128;2023-02-16T16:43:57;20.63;;;9.13;;
2480;SDS011;57396;48.742;9.128;2023-02-16T16:46:24;19.37;;;9.10;;
2480;SDS011;57396;48.742;9.128;2023-02-16T16:48:52;16.03;;;9.10;;
2480;SDS011;57396;48.742;9.128;2023-02-16T16:51:33;7.73;;;5.70;;
2480;SDS011;57396;48.742;9.128;2023-02-16T16:54:03;17.97;;;12.27;;
2480;SDS011;57396;48.742;9.128;2023-02-16T16:56:34;22.40;;;14.30;;
2480;SDS011;57396;48.742;9.128;2023-02-16T16:59:00;8.93;;;6.77;;
2480;SDS011;57396;48.742;9.128;2023-02-16T17:01:27;13.23;;;9.07;;
2480;SDS011;57396;48.742;9.128;2023-02-16T17:03:52;13.83;;;9.07;;
2480;SDS011;57396;48.742;9.128;2023-02-16T17:06:19;14.00;;;8.87;;
2480;SDS011;57396;48.742;9.128;2023-02-16T17:08:45;14.97;;;9.00;;
2480;SDS011;57396;48.742;9.128;2023-02-16T17:11:12;20.63;;;6.90;;
2480;SDS011;57396;48.742;9.128;2023-02-16T17:13:41;12.33;;;5.93;;
2480;SDS011;57396;48.742;9.128;2023-02-16T17:16:11;13.73;;;4.90;;
2480;SDS011;57396;48.742;9.128;2023-02-16T17:18:39;16.37;;;5.63;;
2480;SDS011;57396;48.742;9.128;2023-02-16T17:21:05;11.83;;;6.70;;
2480;SDS011;57396;48.742;9.128;2023-02-16T17:23:30;7.67;;;5.43;;
2480;SDS011;57396;48.742;9.128;2023-02-16T17:25:56;9.00;;;4.90;;
2480;SDS011;57396;48.742;9.128;2023-02-16T17:28:21;10.47;;;4.70;;
2480;SDS011;57396;48.742;9.128;2023-02-16T17:30:47;10.93;;;4.30;;
2480;SDS011;57396;48.742;9.128;2023-02-16T17:33:12;8.07;;;4.27;;
2480;SDS011;57396;48.742;9.128;2023-02-16T17:35:39;11.80;;;4.40;;
2480;SDS011;57396;48.742;9.128;2023-02-16T17:38:10;9.30;;;4.17;;
2480;SDS011;57396;48.742;9.128;2023-02-16T17:40:46;13.40;;;4.33;;
2480;SDS011;57396;48.742;9.128;2023-02-16T17:43:12;5.47;;;4.20;;
2480;SDS011;57396;48.742;9.128;2023-02-16T17:45:38;7.13;;;5.03;;
2480;SDS011;57396;48.742;9.128;2023-02-16T17:48:04;7.67;;;4.57;;
2480;SDS011;57396;48.742;9.128;2023-02-16T17:50:29;10.93;;;4.97;;
2480;SDS011;57396;48.742;9.128;2023-02-16T17:52:56;11.57;;;4.97;;
2480;SDS011;57396;48.742;9.128;2023-02-16T17:55:22;7.60;;;4.40;;